This is the latest recevied weather packets stored in our database for station/object OK1PNK-5. If no packets are shown the sender has not sent any weather packets the latest 10 day(s).
| Time | Temp. | Humidity | Pressure | Rain* | Wind** | Luminosity | Snow |
|---|---|---|---|---|---|---|---|
| 1777839743 | 21.11° C | 32% | 970.4 hPa | 0 mm | - | - | - |
| 1777839143 | 21.11° C | 31% | 970.3 hPa | 0 mm | - | - | - |
| 1777838543 | 21.67° C | 31% | 970.4 hPa | 0 mm | - | - | - |
| 1777837943 | 21.67° C | 30% | 970.4 hPa | 0 mm | - | - | - |
| 1777836743 | 22.22° C | 28% | 970.3 hPa | 0 mm | - | - | - |
| 1777835543 | 22.78° C | 27% | 970.2 hPa | 0 mm | - | - | - |
| 1777834343 | 23.33° C | 27% | 970.1 hPa | 0 mm | - | - | - |
| 1777832543 | 23.89° C | 25% | 970 hPa | 0 mm | - | - | - |
| 1777831943 | 24.44° C | 24% | 969.9 hPa | 0 mm | - | - | - |
| 1777831343 | 24.44° C | 24% | 969.9 hPa | 0 mm | - | - | - |
| 1777829543 | 25° C | 23% | 969.8 hPa | 0 mm | - | - | - |
| 1777828943 | 25.56° C | 22% | 969.9 hPa | 0 mm | - | - | - |
| 1777827143 | 26.11° C | 23% | 969.9 hPa | 0 mm | - | - | - |
| 1777825943 | 26.67° C | 21% | 970 hPa | 0 mm | - | - | - |
| 1777825343 | 27.22° C | 20% | 970 hPa | 0 mm | - | - | - |
| 1777824143 | 27.78° C | 20% | 970 hPa | 0 mm | - | - | - |
| 1777822343 | 27.78° C | 20% | 970.2 hPa | 0 mm | - | - | - |
| 1777821743 | 27.78° C | 20% | 970.2 hPa | 0 mm | - | - | - |
| 1777821143 | 27.78° C | 19% | 970.5 hPa | 0 mm | - | - | - |
| 1777820543 | 27.78° C | 19% | 970.6 hPa | 0 mm | - | - | - |
| 1777818143 | 28.33° C | 18% | 970.9 hPa | 0 mm | - | - | - |
| 1777817543 | 28.33° C | 18% | 971 hPa | 0 mm | - | - | - |
| 1777816943 | 28.33° C | 18% | 971.3 hPa | 0 mm | - | - | - |
| 1777814543 | 17.78° C | 32% | 976.4 hPa | 0 mm | - | - | - |
| 1777813343 | 17.78° C | 32% | 976.4 hPa | 0 mm | - | - | - |
* Rain latest hour (hover to see other rain measurements)
** Current wind speed in m/s (hover to see current wind gust speed)